createdAt,value
2019-03-16T00:00:16.187Z,11.20
2019-03-16T00:02:44.614Z,10.80
2019-03-16T00:05:13.239Z,10.70
2019-03-16T00:07:41.685Z,10.90
2019-03-16T00:10:10.264Z,10.60
2019-03-16T00:12:38.697Z,10.60
2019-03-16T00:15:08.708Z,10.80
2019-03-16T00:17:37.143Z,10.50
2019-03-16T00:22:35.250Z,10.50
2019-03-16T00:25:04.852Z,10.50
2019-03-16T00:27:33.340Z,10.30
2019-03-16T00:30:01.783Z,10.40
2019-03-16T05:32:56.288Z,9.30
2019-03-16T05:37:52.880Z,9.30
2019-03-16T05:42:49.416Z,9.50
2019-03-16T05:45:17.835Z,9.30
2019-03-16T05:47:46.285Z,9.30
2019-03-16T05:55:11.264Z,9.40
2019-03-16T05:57:39.741Z,9.50
2019-03-16T06:00:13.267Z,9.70
2019-03-16T06:02:41.703Z,9.10
2019-03-16T06:05:11.395Z,9.00
2019-03-16T06:07:40.110Z,9.30
2019-03-16T06:10:10.219Z,9.60
2019-03-16T06:12:38.665Z,9.20
2019-03-16T06:17:36.946Z,9.60
2019-03-16T06:20:08.774Z,9.80
2019-03-16T06:22:37.424Z,9.70
2019-03-16T06:25:07.626Z,10.00
2019-03-16T06:27:36.058Z,9.80
2019-03-16T06:32:34.159Z,10.10
2019-03-16T06:37:30.727Z,10.10
2019-03-16T06:42:27.351Z,10.00
2019-03-16T06:47:23.911Z,10.40
2019-03-16T06:52:20.498Z,9.90
2019-03-16T06:54:49.110Z,10.80
2019-03-16T06:57:17.574Z,10.30
2019-03-16T06:59:46.042Z,10.50
2019-03-16T07:07:10.797Z,10.40
2019-03-16T07:09:39.239Z,10.50
2019-03-16T07:12:07.710Z,11.00
2019-03-16T07:14:36.240Z,10.70
2019-03-16T07:24:30.814Z,10.80
2019-03-16T07:26:59.314Z,10.70
2019-03-16T07:31:56.083Z,10.90
2019-03-16T07:39:21.020Z,10.40
2019-03-16T07:41:49.567Z,10.60
2019-03-16T07:44:18.122Z,10.20
2019-03-16T07:46:46.584Z,10.60
2019-03-16T07:59:07.768Z,10.70
2019-03-16T08:01:36.235Z,10.50
2019-03-16T08:09:02.231Z,10.70
2019-03-16T08:11:30.717Z,10.70
2019-03-16T08:13:59.329Z,10.50
2019-03-16T08:16:27.823Z,10.70
2019-03-16T08:18:56.353Z,11.10
2019-03-16T08:21:24.949Z,11.10
2019-03-16T08:28:50.529Z,11.30
2019-03-16T08:31:18.994Z,11.30
2019-03-16T08:33:47.429Z,11.20
2019-03-16T08:36:15.893Z,11.40
2019-03-16T08:38:44.509Z,11.50
2019-03-16T08:43:41.203Z,11.30
2019-03-16T08:46:09.724Z,11.60
2019-03-16T08:48:38.166Z,11.90
2019-03-16T08:51:06.630Z,12.20
2019-03-16T08:53:35.075Z,12.50
2019-03-16T08:56:03.539Z,13.00
2019-03-16T08:58:31.968Z,13.20
2019-03-16T09:01:00.428Z,13.30
2019-03-16T09:08:25.405Z,14.30
2019-03-16T09:10:53.944Z,15.30
2019-03-16T09:13:22.483Z,15.90
2019-03-16T09:15:51.004Z,16.80
2019-03-16T09:18:19.456Z,17.10
2019-03-16T09:20:47.958Z,18.10
2019-03-16T09:28:18.568Z,18.40
2019-03-16T09:30:43.132Z,16.20
2019-03-16T09:33:11.733Z,15.40
2019-03-16T09:35:40.785Z,14.80
2019-03-16T09:38:09.236Z,14.20
2019-03-16T09:40:37.688Z,13.70
2019-03-16T09:43:06.127Z,13.60
2019-03-16T09:45:34.573Z,13.10
2019-03-16T09:50:31.125Z,13.00
2019-03-16T09:55:27.726Z,13.00
2019-03-16T10:00:24.311Z,12.40
2019-03-16T10:02:52.777Z,12.20
2019-03-16T10:07:49.431Z,12.80
2019-03-16T10:10:17.864Z,12.10
2019-03-16T10:12:47.192Z,12.70
2019-03-16T10:15:15.704Z,12.90
2019-03-16T10:17:44.150Z,13.00
2019-03-16T10:22:42.336Z,12.80
2019-03-16T10:25:10.839Z,13.50
2019-03-16T10:27:39.276Z,14.20
2019-03-16T10:30:12.807Z,15.00
2019-03-16T10:32:41.253Z,15.40
2019-03-16T10:35:09.924Z,15.90
2019-03-16T10:37:38.389Z,16.90
2019-03-16T10:47:33.973Z,15.90
2019-03-16T10:50:02.407Z,16.40
2019-03-16T10:55:01.062Z,17.70
2019-03-16T10:57:29.512Z,16.80
2019-03-16T11:02:27.653Z,18.20
2019-03-16T11:07:25.563Z,19.40
2019-03-16T11:09:53.994Z,19.90
2019-03-16T11:14:50.532Z,20.90
2019-03-16T14:36:19.616Z,21.30
